createdAt,value
2023-11-24T00:01:33.357Z,10.82
2023-11-24T00:03:59.860Z,10.93
2023-11-24T00:06:26.302Z,10.99
2023-11-24T00:08:52.698Z,11.00
2023-11-24T00:11:19.059Z,10.99
2023-11-24T00:13:45.678Z,11.00
2023-11-24T00:16:12.167Z,11.02
2023-11-24T00:18:38.607Z,10.99
2023-11-24T00:21:05.010Z,11.00
2023-11-24T00:23:31.384Z,11.02
2023-11-24T00:25:57.772Z,11.05
2023-11-24T00:28:24.145Z,11.07
2023-11-24T00:30:50.575Z,10.98
2023-11-24T00:33:17.074Z,10.75
2023-11-24T00:35:43.500Z,10.85
2023-11-24T00:38:09.911Z,11.05
2023-11-24T00:40:36.326Z,11.16
2023-11-24T00:43:02.760Z,11.15
2023-11-24T00:45:29.201Z,11.16
2023-11-24T00:47:55.646Z,11.17
2023-11-24T00:50:22.036Z,11.12
2023-11-24T00:52:48.479Z,11.15
2023-11-24T00:55:15.092Z,11.13
2023-11-24T00:57:41.506Z,11.13
2023-11-24T01:00:07.903Z,11.12
2023-11-24T01:02:34.347Z,11.15
2023-11-24T01:05:00.769Z,11.03
2023-11-24T01:07:27.400Z,10.85
2023-11-24T01:09:53.836Z,10.82
2023-11-24T01:12:20.335Z,10.96
2023-11-24T01:14:46.782Z,10.99
2023-11-24T01:17:13.239Z,11.03
2023-11-24T01:19:39.655Z,11.07
2023-11-24T01:22:06.064Z,11.10
2023-11-24T01:24:32.457Z,11.09
2023-11-24T01:26:58.836Z,11.06
2023-11-24T01:29:25.183Z,11.07
2023-11-24T01:31:51.635Z,11.07
2023-11-24T01:34:18.286Z,11.05
2023-11-24T01:36:44.749Z,11.06
2023-11-24T01:39:11.172Z,11.07
2023-11-24T01:41:37.558Z,10.86
2023-11-24T01:44:03.936Z,10.72
2023-11-24T01:46:30.357Z,10.86
2023-11-24T01:48:56.887Z,10.98
2023-11-24T01:51:23.392Z,10.98
2023-11-24T01:53:49.802Z,11.02
2023-11-24T01:56:16.495Z,10.99
2023-11-24T01:58:42.862Z,10.99
2023-11-24T02:01:09.220Z,11.06
2023-11-24T02:03:35.660Z,11.07
2023-11-24T02:06:02.060Z,11.03
2023-11-24T02:08:28.438Z,11.06
2023-11-24T02:10:54.837Z,11.10
2023-11-24T02:13:21.424Z,11.15
2023-11-24T02:15:47.824Z,11.06
2023-11-24T02:18:14.218Z,10.85
2023-11-24T02:20:40.613Z,10.93
2023-11-24T02:23:08.688Z,11.09
2023-11-24T02:25:53.662Z,11.15
2023-11-24T02:28:38.702Z,11.19
2023-11-24T02:31:23.645Z,11.16
2023-11-24T02:34:08.878Z,11.16
2023-11-24T02:36:54.291Z,11.16
2023-11-24T02:39:39.409Z,11.15
2023-11-24T02:42:24.493Z,11.15
2023-11-24T02:45:09.252Z,11.13
2023-11-24T02:47:54.070Z,11.16
2023-11-24T02:50:39.411Z,11.02
2023-11-24T02:53:24.552Z,10.75
2023-11-24T02:56:09.716Z,10.89
2023-11-24T02:58:54.539Z,11.03
2023-11-24T03:01:39.881Z,11.07
2023-11-24T03:04:25.149Z,11.05
2023-11-24T03:07:10.101Z,11.07
2023-11-24T03:09:55.141Z,11.07
2023-11-24T03:12:40.123Z,11.05
2023-11-24T03:15:25.423Z,11.06
2023-11-24T03:18:10.707Z,11.07
2023-11-24T03:20:55.613Z,11.07
2023-11-24T03:23:40.621Z,11.10
2023-11-24T03:26:25.751Z,10.89
2023-11-24T03:29:10.515Z,10.73
2023-11-24T03:31:55.564Z,10.89
2023-11-24T03:34:40.522Z,10.96
2023-11-24T03:37:25.203Z,11.02
2023-11-24T03:40:10.203Z,11.03
2023-11-24T03:42:50.649Z,11.02
2023-11-24T03:45:17.070Z,10.99
2023-11-24T03:47:43.516Z,11.03
2023-11-24T03:50:10.158Z,11.05
2023-11-24T03:52:36.535Z,11.09
2023-11-24T03:55:02.999Z,11.09
2023-11-24T03:57:29.413Z,11.15
2023-11-24T03:59:55.796Z,11.09
2023-11-24T04:02:22.461Z,10.91
2023-11-24T04:04:48.920Z,10.89
2023-11-24T04:07:15.331Z,11.03
2023-11-24T04:09:41.741Z,11.07
2023-11-24T04:12:08.151Z,11.13
2023-11-24T04:14:34.536Z,11.10
2023-11-24T04:17:01.621Z,11.16
2023-11-24T04:19:28.370Z,11.17
2023-11-24T04:21:54.789Z,11.17
2023-11-24T04:24:21.204Z,11.12
2023-11-24T04:26:47.579Z,11.15
2023-11-24T04:29:13.943Z,11.13
2023-11-24T04:31:40.315Z,11.16
2023-11-24T04:34:06.795Z,11.09
2023-11-24T04:36:33.255Z,10.89
2023-11-24T04:38:59.632Z,10.78
2023-11-24T04:41:26.235Z,10.93
2023-11-24T04:43:52.619Z,11.05
2023-11-24T04:46:19.196Z,11.05
2023-11-24T04:48:45.686Z,11.07
2023-11-24T04:51:12.091Z,11.07
2023-11-24T04:53:41.261Z,11.10
2023-11-24T04:56:07.959Z,11.09
2023-11-24T04:58:34.344Z,11.06
2023-11-24T05:01:00.860Z,11.06
2023-11-24T05:03:27.662Z,11.07
2023-11-24T05:05:54.101Z,11.10
2023-11-24T05:08:20.477Z,11.15
2023-11-24T05:10:46.871Z,10.93
2023-11-24T05:13:13.291Z,10.71
2023-11-24T05:15:39.725Z,10.83
2023-11-24T05:18:06.169Z,10.95
2023-11-24T05:20:32.730Z,10.99
2023-11-24T05:22:59.097Z,11.02
2023-11-24T05:25:25.471Z,11.05
2023-11-24T05:27:51.891Z,11.06
2023-11-24T05:30:18.295Z,11.07
2023-11-24T05:32:44.900Z,11.10
2023-11-24T05:35:11.349Z,11.17
2023-11-24T05:37:37.714Z,11.17
2023-11-24T05:40:04.155Z,11.16
2023-11-24T05:42:30.609Z,11.19
2023-11-24T05:44:57.263Z,11.09
2023-11-24T05:47:23.705Z,10.86
2023-11-24T05:49:50.113Z,10.89
2023-11-24T05:52:16.631Z,11.03
2023-11-24T05:54:43.185Z,11.10
2023-11-24T05:57:09.573Z,11.13
2023-11-24T05:59:35.954Z,11.12
2023-11-24T06:02:02.391Z,11.12
2023-11-24T06:04:28.992Z,11.15
2023-11-24T06:06:55.450Z,11.13
2023-11-24T06:09:21.900Z,11.15
2023-11-24T06:11:48.300Z,11.15
2023-11-24T06:14:14.663Z,11.15
2023-11-24T06:16:41.100Z,11.16
2023-11-24T06:19:07.595Z,11.06
2023-11-24T06:21:33.999Z,10.82
2023-11-24T06:24:00.367Z,10.79
2023-11-24T06:26:26.738Z,10.93
2023-11-24T06:28:53.120Z,11.00
2023-11-24T06:31:19.667Z,11.02
2023-11-24T06:33:46.175Z,11.03
2023-11-24T06:36:12.585Z,11.06
2023-11-24T06:38:39.201Z,11.05
2023-11-24T06:41:05.563Z,11.05
2023-11-24T06:43:31.941Z,11.06
2023-11-24T06:45:58.378Z,11.07
2023-11-24T06:48:24.756Z,11.07
2023-11-24T06:50:51.352Z,11.10
2023-11-24T06:53:17.730Z,11.13
2023-11-24T06:55:44.126Z,10.83
2023-11-24T06:58:10.565Z,10.69
2023-11-24T07:00:37.007Z,10.82
2023-11-24T07:03:03.473Z,10.93
2023-11-24T07:05:30.060Z,10.96
2023-11-24T07:07:56.479Z,10.99
2023-11-24T07:10:23.015Z,11.05
2023-11-24T07:12:49.689Z,11.10
2023-11-24T07:15:16.132Z,11.17
2023-11-24T07:17:42.586Z,11.15
2023-11-24T07:20:09.269Z,11.15
2023-11-24T07:22:35.632Z,11.16
2023-11-24T07:25:02.036Z,11.19
2023-11-24T07:27:31.694Z,11.20
2023-11-24T07:29:58.735Z,11.07
2023-11-24T07:32:25.337Z,10.82
2023-11-24T07:34:51.791Z,10.93
2023-11-24T07:37:18.206Z,11.06
2023-11-24T07:39:46.509Z,11.07
2023-11-24T07:42:13.032Z,11.09
2023-11-24T07:44:39.418Z,11.12
2023-11-24T07:47:05.793Z,11.12
2023-11-24T07:49:32.179Z,11.09
2023-11-24T07:51:58.601Z,11.15
2023-11-24T07:54:24.987Z,11.10
2023-11-24T07:56:51.369Z,11.12
2023-11-24T07:59:17.989Z,11.10
2023-11-24T08:01:44.460Z,11.13
2023-11-24T08:04:11.035Z,11.02
2023-11-24T08:06:37.554Z,10.79
2023-11-24T08:09:03.964Z,10.82
2023-11-24T08:11:30.347Z,10.95
2023-11-24T08:13:56.737Z,11.03
2023-11-24T08:16:23.443Z,11.05
2023-11-24T08:18:51.242Z,11.00
2023-11-24T08:21:17.811Z,11.05
2023-11-24T08:23:44.190Z,11.05
2023-11-24T08:26:12.459Z,11.06
2023-11-24T08:28:40.467Z,11.06
2023-11-24T08:31:06.847Z,11.06
2023-11-24T08:33:33.215Z,11.05
2023-11-24T08:35:59.592Z,11.10
2023-11-24T08:38:25.972Z,11.10
2023-11-24T08:40:52.361Z,10.85
2023-11-24T08:43:18.803Z,10.71
2023-11-24T08:45:45.224Z,10.83
2023-11-24T08:48:11.711Z,10.91
2023-11-24T08:50:38.181Z,11.00
2023-11-24T08:53:04.580Z,11.07
2023-11-24T08:55:30.987Z,11.13
2023-11-24T08:57:57.376Z,11.09
2023-11-24T09:00:23.774Z,11.12
2023-11-24T09:02:50.464Z,11.10
2023-11-24T09:05:16.945Z,11.09
2023-11-24T09:07:43.316Z,11.12
2023-11-24T09:10:09.850Z,11.13
2023-11-24T09:12:36.430Z,11.10
2023-11-24T09:15:03.082Z,11.00
2023-11-24T09:17:29.526Z,10.75
2023-11-24T09:19:55.944Z,10.91
2023-11-24T09:22:22.384Z,11.00
2023-11-24T09:24:49.583Z,11.05
2023-11-24T09:27:16.231Z,11.09
2023-11-24T09:29:42.610Z,11.06
2023-11-24T09:32:09.193Z,11.06
2023-11-24T09:34:35.642Z,11.06
2023-11-24T09:37:02.087Z,11.07
2023-11-24T09:39:28.584Z,11.07
2023-11-24T09:41:54.991Z,11.06
2023-11-24T09:44:21.368Z,11.10
2023-11-24T09:46:51.960Z,11.09
2023-11-24T09:49:19.411Z,10.98
2023-11-24T09:51:45.817Z,10.76
2023-11-24T09:57:02.039Z,10.91
2023-11-24T09:59:28.447Z,10.98
2023-11-24T10:01:55.056Z,11.03
2023-11-24T10:04:21.694Z,11.02
2023-11-24T10:06:48.275Z,11.05
2023-11-24T10:09:14.689Z,11.02
2023-11-24T10:11:41.057Z,11.02
2023-11-24T10:14:07.450Z,11.05
2023-11-24T10:16:33.822Z,11.06
2023-11-24T10:19:00.220Z,11.03
2023-11-24T10:21:32.557Z,11.06
2023-11-24T10:23:59.853Z,10.92
2023-11-24T10:26:26.762Z,10.69
2023-11-24T10:28:53.638Z,10.72
2023-11-24T10:31:22.408Z,10.92
2023-11-24T10:33:49.093Z,11.05
2023-11-24T10:36:15.523Z,11.12
2023-11-24T10:38:41.972Z,11.07
2023-11-24T10:41:08.378Z,11.10
2023-11-24T10:43:34.754Z,11.09
2023-11-24T10:46:01.136Z,11.09
2023-11-24T10:48:27.720Z,11.07
2023-11-24T10:50:54.184Z,11.10
2023-11-24T10:53:20.574Z,11.09
2023-11-24T10:55:46.939Z,11.10
2023-11-24T10:58:13.371Z,11.03
2023-11-24T11:00:40.000Z,10.86
2023-11-24T11:03:06.543Z,10.78
2023-11-24T11:05:32.989Z,10.92
2023-11-24T11:07:59.388Z,11.03
2023-11-24T11:10:25.873Z,11.06
2023-11-24T11:12:52.403Z,11.09
2023-11-24T11:15:18.988Z,11.09
2023-11-24T11:17:45.370Z,11.03
2023-11-24T11:20:12.004Z,11.03
2023-11-24T11:22:38.387Z,11.03
2023-11-24T11:25:04.876Z,11.07
2023-11-24T11:27:31.339Z,11.02
2023-11-24T11:29:57.731Z,11.05
2023-11-24T11:32:25.866Z,11.02
2023-11-24T11:34:53.316Z,10.88
2023-11-24T11:37:19.795Z,10.69
2023-11-24T11:39:46.230Z,10.82
2023-11-24T11:42:12.611Z,10.89
2023-11-24T11:44:38.955Z,10.93
2023-11-24T11:47:05.681Z,10.92
2023-11-24T11:49:33.322Z,10.99
2023-11-24T11:51:59.916Z,10.99
2023-11-24T11:54:26.366Z,10.96
2023-11-24T11:56:52.733Z,10.98
2023-11-24T11:59:19.113Z,10.95
2023-11-24T12:01:45.617Z,10.96
2023-11-24T12:04:12.378Z,10.99
2023-11-24T12:06:38.796Z,10.99
2023-11-24T12:09:05.164Z,10.88
2023-11-24T12:11:31.513Z,10.65
2023-11-24T12:13:57.859Z,10.75
2023-11-24T12:16:24.790Z,10.92
2023-11-24T12:18:51.241Z,11.02
2023-11-24T12:21:17.643Z,11.10
2023-11-24T12:23:44.001Z,11.12
2023-11-24T12:26:10.389Z,11.16
2023-11-24T12:28:36.968Z,11.10
2023-11-24T12:31:03.391Z,11.07
2023-11-24T12:33:29.825Z,11.06
2023-11-24T12:35:56.345Z,11.06
2023-11-24T12:38:22.760Z,11.00
2023-11-24T12:40:49.124Z,11.02
2023-11-24T12:43:15.639Z,10.96
2023-11-24T12:45:42.242Z,10.79
2023-11-24T12:48:08.860Z,10.72
2023-11-24T12:50:35.276Z,10.89
2023-11-24T12:53:01.646Z,10.98
2023-11-24T12:55:28.271Z,10.96
2023-11-24T12:57:54.715Z,11.00
2023-11-24T13:00:21.348Z,11.02
2023-11-24T13:02:47.737Z,10.99
2023-11-24T13:05:14.576Z,10.99
2023-11-24T13:07:41.288Z,10.99
2023-11-24T13:10:07.829Z,10.98
2023-11-24T13:12:34.512Z,10.93
2023-11-24T13:15:00.870Z,10.98
2023-11-24T13:17:27.223Z,10.99
2023-11-24T13:19:53.629Z,10.75
2023-11-24T13:22:20.119Z,10.59
2023-11-24T13:24:46.547Z,10.79
2023-11-24T13:27:12.936Z,10.88
2023-11-24T13:29:39.527Z,10.91
2023-11-24T13:32:05.931Z,10.91
2023-11-24T13:34:32.378Z,10.91
2023-11-24T13:36:59.585Z,10.88
2023-11-24T13:39:26.083Z,10.89
2023-11-24T13:41:52.531Z,10.89
2023-11-24T13:44:18.897Z,10.89
2023-11-24T13:46:45.603Z,10.93
2023-11-24T13:49:12.038Z,10.95
2023-11-24T13:51:38.468Z,11.02
2023-11-24T13:54:04.954Z,10.91
2023-11-24T13:56:31.409Z,10.64
2023-11-24T13:58:57.806Z,10.78
2023-11-24T14:01:24.312Z,10.93
2023-11-24T14:03:51.132Z,11.02
2023-11-24T14:06:17.588Z,11.02
2023-11-24T14:08:43.940Z,11.07
2023-11-24T14:11:10.315Z,11.07
2023-11-24T14:13:36.738Z,10.99
2023-11-24T14:16:03.317Z,10.99
2023-11-24T14:18:29.729Z,10.99
2023-11-24T14:20:56.314Z,11.02
2023-11-24T14:23:22.674Z,11.02
2023-11-24T14:25:49.059Z,10.99
2023-11-24T14:28:17.113Z,10.93
2023-11-24T14:30:44.650Z,10.72
2023-11-24T14:33:11.082Z,10.69
2023-11-24T14:35:37.495Z,10.88
2023-11-24T14:38:04.093Z,10.93
2023-11-24T14:40:33.261Z,10.95
2023-11-24T14:43:00.049Z,10.95
2023-11-24T14:45:26.485Z,10.95
2023-11-24T14:47:52.925Z,10.92
2023-11-24T14:50:19.382Z,10.92
2023-11-24T14:52:45.778Z,10.93
2023-11-24T14:55:12.213Z,10.91
2023-11-24T14:57:38.602Z,10.92
2023-11-24T15:00:06.817Z,10.96
2023-11-24T15:02:33.273Z,10.95
2023-11-24T15:04:59.755Z,10.75
2023-11-24T15:07:26.229Z,10.64
2023-11-24T15:09:52.638Z,10.79
2023-11-24T15:12:19.055Z,10.88
2023-11-24T15:14:45.425Z,10.93
2023-11-24T15:17:11.842Z,10.95
2023-11-24T15:19:38.238Z,10.91
2023-11-24T15:22:04.682Z,10.92
2023-11-24T15:24:31.107Z,10.92
2023-11-24T15:26:57.547Z,10.91
2023-11-24T15:29:23.946Z,10.91
2023-11-24T15:31:50.381Z,10.96
2023-11-24T15:34:16.863Z,10.98
2023-11-24T15:36:43.266Z,10.95
2023-11-24T15:39:09.638Z,10.82
2023-11-24T15:41:36.046Z,10.65
2023-11-24T15:44:02.464Z,10.82
2023-11-24T15:46:28.892Z,10.96
2023-11-24T15:48:55.304Z,11.03
2023-11-24T15:51:21.910Z,11.05
2023-11-24T15:53:48.291Z,11.03
2023-11-24T15:56:14.681Z,11.06
2023-11-24T15:58:41.043Z,11.02
2023-11-24T16:01:07.729Z,10.96
2023-11-24T16:03:34.464Z,10.96
2023-11-24T16:06:00.836Z,10.96
2023-11-24T16:08:27.224Z,10.98
2023-11-24T16:10:53.713Z,11.00
2023-11-24T16:13:20.142Z,10.91
2023-11-24T16:15:46.608Z,10.67
2023-11-24T16:18:13.012Z,10.69
2023-11-24T16:20:39.393Z,10.78
2023-11-24T16:23:05.769Z,10.88
2023-11-24T16:25:32.180Z,10.92
2023-11-24T16:27:58.578Z,10.92
2023-11-24T16:30:25.170Z,10.93
2023-11-24T16:32:51.589Z,10.88
2023-11-24T16:35:17.974Z,10.85
2023-11-24T16:37:48.895Z,10.86
2023-11-24T16:40:15.381Z,10.89
2023-11-24T16:42:41.823Z,10.88
2023-11-24T16:45:08.218Z,10.92
2023-11-24T16:47:34.933Z,10.85
2023-11-24T16:50:01.396Z,10.64
2023-11-24T16:52:27.843Z,10.59
2023-11-24T16:54:54.297Z,10.76
2023-11-24T16:57:20.673Z,10.80
2023-11-24T16:59:47.059Z,10.80
2023-11-24T17:02:13.552Z,10.82
2023-11-24T17:04:40.011Z,10.82
2023-11-24T17:07:06.452Z,10.82
2023-11-24T17:09:33.082Z,10.89
2023-11-24T17:11:59.432Z,10.88
2023-11-24T17:14:25.787Z,10.93
2023-11-24T17:16:52.551Z,10.95
2023-11-24T17:19:19.337Z,10.95
2023-11-24T17:21:45.796Z,10.95
2023-11-24T17:24:12.230Z,10.82
2023-11-24T17:26:38.626Z,10.61
2023-11-24T17:29:05.087Z,10.78
2023-11-24T17:31:31.528Z,10.86
2023-11-24T17:33:58.102Z,10.93
2023-11-24T17:36:24.595Z,10.93
2023-11-24T17:38:50.981Z,10.93
2023-11-24T17:41:17.385Z,10.89
2023-11-24T17:43:43.783Z,10.85
2023-11-24T17:46:10.265Z,10.91
2023-11-24T17:48:36.733Z,10.86
2023-11-24T17:51:03.157Z,10.86
2023-11-24T17:53:29.575Z,10.88
2023-11-24T17:55:55.956Z,10.92
2023-11-24T17:58:22.382Z,10.78
2023-11-24T18:00:48.830Z,10.54
2023-11-24T18:03:15.264Z,10.62
2023-11-24T18:05:41.655Z,10.75
2023-11-24T18:08:08.120Z,10.78
2023-11-24T18:10:34.556Z,10.79
2023-11-24T18:13:01.108Z,10.83
2023-11-24T18:15:27.525Z,10.80
2023-11-24T18:17:53.937Z,10.78
2023-11-24T18:20:20.554Z,10.76
2023-11-24T18:22:46.941Z,10.76
2023-11-24T18:25:13.650Z,10.76
2023-11-24T18:27:40.110Z,10.80
2023-11-24T18:30:06.514Z,10.79
2023-11-24T18:32:32.940Z,10.72
2023-11-24T18:34:59.312Z,10.52
2023-11-24T18:37:25.718Z,10.54
2023-11-24T18:39:52.171Z,10.67
2023-11-24T18:42:18.805Z,10.80
2023-11-24T18:44:45.187Z,10.88
2023-11-24T18:47:11.572Z,10.88
2023-11-24T18:49:37.969Z,10.86
2023-11-24T18:52:04.408Z,10.86
2023-11-24T18:54:30.847Z,10.83
2023-11-24T18:56:57.233Z,10.82
2023-11-24T18:59:23.638Z,10.79
2023-11-24T19:01:50.121Z,10.79
2023-11-24T19:04:16.843Z,10.80
2023-11-24T19:06:43.248Z,10.79
2023-11-24T19:09:09.625Z,10.61
2023-11-24T19:11:35.991Z,10.44
2023-11-24T19:14:02.338Z,10.64
2023-11-24T19:16:28.851Z,10.71
2023-11-24T19:18:55.288Z,10.75
2023-11-24T19:21:24.865Z,10.79
2023-11-24T19:23:51.504Z,10.79
2023-11-24T19:26:17.877Z,10.80
2023-11-24T19:28:44.548Z,10.76
2023-11-24T19:31:11.017Z,10.75
2023-11-24T19:33:37.441Z,10.71
2023-11-24T19:36:03.822Z,10.68
2023-11-24T19:38:30.192Z,10.72
2023-11-24T19:40:56.552Z,10.78
2023-11-24T19:43:23.031Z,10.67
2023-11-24T19:45:49.460Z,10.45
2023-11-24T19:48:15.836Z,10.55
2023-11-24T19:50:42.217Z,10.69
2023-11-24T19:53:08.802Z,10.76
2023-11-24T19:55:35.213Z,10.71
2023-11-24T19:58:01.649Z,10.73
2023-11-24T20:00:28.080Z,10.75
2023-11-24T20:02:54.555Z,10.71
2023-11-24T20:05:20.981Z,10.71
2023-11-24T20:07:47.329Z,10.69
2023-11-24T20:10:13.973Z,10.69
2023-11-24T20:12:40.375Z,10.73
2023-11-24T20:15:06.755Z,10.76
2023-11-24T20:17:33.129Z,10.69
2023-11-24T20:19:59.594Z,10.52
2023-11-24T20:22:26.050Z,10.54
2023-11-24T20:24:52.473Z,10.72
2023-11-24T20:27:18.865Z,10.82
2023-11-24T20:29:45.283Z,10.83
2023-11-24T20:32:11.900Z,10.85
2023-11-24T20:34:38.409Z,10.83
2023-11-24T20:37:04.863Z,10.82
2023-11-24T20:39:31.320Z,10.80
2023-11-24T20:41:57.705Z,10.75
2023-11-24T20:44:24.085Z,10.75
2023-11-24T20:46:50.502Z,10.73
2023-11-24T20:49:16.965Z,10.72
2023-11-24T20:51:43.566Z,10.71
2023-11-24T20:54:10.173Z,10.54
2023-11-24T20:56:36.520Z,10.44
2023-11-24T20:59:02.914Z,10.58
2023-11-24T21:01:29.469Z,10.67
2023-11-24T21:03:55.970Z,10.69
2023-11-24T21:06:22.390Z,10.73
2023-11-24T21:08:48.752Z,10.75
2023-11-24T21:11:15.360Z,10.73
2023-11-24T21:13:41.705Z,10.73
2023-11-24T21:16:08.130Z,10.68
2023-11-24T21:18:34.769Z,10.69
2023-11-24T21:21:01.174Z,10.71
2023-11-24T21:23:27.564Z,10.71
2023-11-24T21:25:53.948Z,10.76
2023-11-24T21:28:20.389Z,10.59
2023-11-24T21:30:46.876Z,10.41
2023-11-24T21:33:13.331Z,10.51
2023-11-24T21:35:39.981Z,10.68
2023-11-24T21:38:06.377Z,10.71
2023-11-24T21:40:32.856Z,10.72
2023-11-24T21:42:59.287Z,10.76
2023-11-24T21:45:25.682Z,10.79
2023-11-24T21:47:52.120Z,10.79
2023-11-24T21:50:18.512Z,10.80
2023-11-24T21:52:44.909Z,10.78
2023-11-24T21:55:11.342Z,10.75
2023-11-24T21:57:37.775Z,10.76
2023-11-24T22:00:04.167Z,10.79
2023-11-24T22:02:30.582Z,10.71
2023-11-24T22:04:57.276Z,10.45
2023-11-24T22:07:23.728Z,10.47
2023-11-24T22:09:50.148Z,10.65
2023-11-24T22:12:16.589Z,10.71
2023-11-24T22:14:43.002Z,10.76
2023-11-24T22:17:09.468Z,10.76
2023-11-24T22:19:35.913Z,10.78
2023-11-24T22:22:02.577Z,10.79
2023-11-24T22:24:28.963Z,10.73
2023-11-24T22:26:55.367Z,10.72
2023-11-24T22:29:21.752Z,10.69
2023-11-24T22:31:48.188Z,10.73
2023-11-24T22:34:14.678Z,10.73
2023-11-24T22:36:41.065Z,10.75
2023-11-24T22:39:07.657Z,10.47
2023-11-24T22:41:34.185Z,10.36
2023-11-24T22:44:00.645Z,10.55
2023-11-24T22:46:27.217Z,10.59
2023-11-24T22:48:53.703Z,10.68
2023-11-24T22:51:20.082Z,10.68
2023-11-24T22:53:46.459Z,10.68
2023-11-24T22:56:12.874Z,10.64
2023-11-24T22:58:39.287Z,10.65
2023-11-24T23:01:05.719Z,10.62
2023-11-24T23:03:32.112Z,10.62
2023-11-24T23:05:58.702Z,10.65
2023-11-24T23:08:25.083Z,10.69
2023-11-24T23:10:51.490Z,10.71
2023-11-24T23:13:17.908Z,10.52
2023-11-24T23:15:44.340Z,10.31
2023-11-24T23:18:10.770Z,10.54
2023-11-24T23:20:37.208Z,10.71
2023-11-24T23:23:03.853Z,10.76
2023-11-24T23:25:30.304Z,10.79
2023-11-24T23:27:56.728Z,10.76
2023-11-24T23:30:23.123Z,10.78
2023-11-24T23:32:49.592Z,10.72
2023-11-24T23:35:16.185Z,10.68
2023-11-24T23:37:42.572Z,10.69
2023-11-24T23:40:09.019Z,10.69
2023-11-24T23:42:35.438Z,10.69
2023-11-24T23:45:01.855Z,10.69
2023-11-24T23:47:28.372Z,10.61
2023-11-24T23:49:54.815Z,10.34
2023-11-24T23:52:21.247Z,10.41
2023-11-24T23:54:47.678Z,10.57
2023-11-24T23:57:14.066Z,10.62
2023-11-24T23:59:40.420Z,10.61
